CYEN

Details ICAO CYEN (YEN)
Name Estevan Regional
Region Canada
Timezone America/Regina (UTC-6.0)
Plans Departing 8
Arriving 4
Stats Elevation 1,905 ft / 581 m (AMSL)
Location 49.209065° -102.963424°
Runways 2
Magnetic Variation 7.559° E
Sunrise 2018-05-25 10:58:32 UTC / 2018-05-25 04:58:32 Local
Sunset 2018-05-26 02:41:58 UTC / 2018-05-25 20:41:58 Local
Advertisement - Login to hide

Runways

ID Width Length Bearing (true) Bearing (mag) Surface Threshold Offset Overrun Length
08 98 ft / 30 m 4,989 ft / 1,521 m 89.73° 82.17° Asphalt 0 ft / 0 m 0 ft / 0 m
15 75 ft / 23 m 3,003 ft / 915 m 159.50° 151.94° Asphalt 0 ft / 0 m 0 ft / 0 m
26 98 ft / 30 m 4,989 ft / 1,521 m 269.75° 262.19° Asphalt 0 ft / 0 m 0 ft / 0 m
33 75 ft / 23 m 3,003 ft / 915 m 339.50° 331.94° Asphalt 0 ft / 0 m 0 ft / 0 m

Map

Weather


0- 5 10 15 20 25 30 35+ Temperature / ° C

Clouds and Precipitation
Forecast for 2018-05-25 12:00 UTC. Updated 6 hours ago

Ground ~20,000 ft ~40,000 ft Winds

METAR

CYEN 251700Z 29017G24KT 15SM SKC 26/11 A2970 RMK SLP057 DENSITY ALT 3900FT

TAF

TAF CYEN 251138Z 2512/2524 22010KT P6SM FEW050 FEW120 BECMG 2514/2516 30015G25KT FM252200 30018G28KT P6SM FEW080 RMK NXT FCST BY 251800Z

Frequencies

Unicom 123.00 MHz CTAF
Warning: Do not use this data for real-world aviation or navigation. No guarantee of current accuracy is given.